createdAt,value
2019-06-25T00:00:02.349Z,99.9
2019-06-25T00:05:03.040Z,99.9
2019-06-25T00:10:02.104Z,98.3
2019-06-25T00:15:03.047Z,96.4
2019-06-25T00:20:02.131Z,95
2019-06-25T00:25:03.343Z,97.9
2019-06-25T00:30:02.286Z,98.1
2019-06-25T00:35:03.444Z,98.4
2019-06-25T00:40:02.182Z,98.5
2019-06-25T00:45:01.564Z,97.1
2019-06-25T00:50:12.443Z,98.7
2019-06-25T00:55:01.604Z,98.8
2019-06-25T01:00:13.918Z,98.6
2019-06-25T01:05:01.501Z,99.5
2019-06-25T01:10:02.483Z,98.8
2019-06-25T01:15:01.876Z,98.6
2019-06-25T01:20:02.886Z,99.4
2019-06-25T01:25:01.631Z,99.9
2019-06-25T01:30:05.272Z,99.9
2019-06-25T01:35:01.994Z,99.9
2019-06-25T01:40:05.187Z,99.9
2019-06-25T01:45:01.637Z,99.9
2019-06-25T01:50:02.703Z,99.9
2019-06-25T01:55:01.923Z,99.9
2019-06-25T02:00:02.996Z,99.9
2019-06-25T02:05:01.755Z,99.9
2019-06-25T02:10:02.724Z,99.9
2019-06-25T02:15:01.741Z,99.9
2019-06-25T02:20:02.494Z,99.9
2019-06-25T02:25:01.870Z,99.9
2019-06-25T02:30:03.253Z,99.9
2019-06-25T02:35:02.318Z,99.9
2019-06-25T02:40:01.695Z,99.9
2019-06-25T02:45:02.561Z,99.9
2019-06-25T02:50:01.741Z,99.9
2019-06-25T02:55:02.586Z,99.9
2019-06-25T03:00:01.866Z,99.9
2019-06-25T03:05:03.023Z,99.9
2019-06-25T03:10:01.844Z,99.9
2019-06-25T03:15:02.974Z,99.9
2019-06-25T03:20:02.028Z,99.9
2019-06-25T03:25:03.337Z,99.9
2019-06-25T03:30:02.310Z,99.9
2019-06-25T03:35:03.452Z,99.9
2019-06-25T03:40:02.281Z,99.9
2019-06-25T03:45:01.484Z,99.9
2019-06-25T03:50:02.356Z,99.9
2019-06-25T03:55:04.048Z,99.9
2019-06-25T04:00:20.231Z,99.9
2019-06-25T04:05:01.736Z,99.9
2019-06-25T04:10:02.593Z,99.9
2019-06-25T04:15:01.769Z,99.9
2019-06-25T04:20:02.992Z,99.9
2019-06-25T04:25:02.098Z,99.9
2019-06-25T04:30:05.929Z,99.9
2019-06-25T04:35:02.068Z,99.9
2019-06-25T04:40:03.030Z,99.9
2019-06-25T04:45:02.208Z,99.9
2019-06-25T04:50:03.486Z,99.9
2019-06-25T04:55:01.935Z,99.9
2019-06-25T05:00:03.247Z,99.9
2019-06-25T05:05:02.147Z,99.9
2019-06-25T05:10:02.916Z,99.9
2019-06-25T05:15:01.883Z,99.9
2019-06-25T05:20:02.968Z,99.9
2019-06-25T05:25:02.094Z,99.9
2019-06-25T05:30:03.504Z,99.9
2019-06-25T05:35:02.304Z,99.9
2019-06-25T05:40:01.616Z,99.9
2019-06-25T05:45:02.819Z,99.9
2019-06-25T05:50:01.893Z,99.9
2019-06-25T05:55:02.955Z,99.9
2019-06-25T06:00:01.757Z,99.9
2019-06-25T06:05:02.993Z,99.9
2019-06-25T06:10:01.987Z,99.9
2019-06-25T06:15:03.029Z,99.9
2019-06-25T06:20:02.196Z,99.9
2019-06-25T06:25:05.306Z,99.9
2019-06-25T06:30:01.950Z,99.9
2019-06-25T06:35:03.169Z,99.9
2019-06-25T06:40:02.014Z,99.9
2019-06-25T06:45:03.204Z,99.9
2019-06-25T06:50:01.957Z,99.9
2019-06-25T06:55:02.915Z,99.9
2019-06-25T07:00:02.210Z,99.9
2019-06-25T07:05:02.399Z,99.9
2019-06-25T07:10:01.859Z,99.9
2019-06-25T07:15:05.492Z,99.9
2019-06-25T07:20:02.181Z,99.9
2019-06-25T07:25:05.911Z,99.9
2019-06-25T07:30:01.797Z,99.9
2019-06-25T07:35:05.541Z,99.9
2019-06-25T07:40:02.209Z,99.9
2019-06-25T07:45:03.133Z,97.6
2019-06-25T07:50:02.493Z,99.9
2019-06-25T07:55:03.306Z,99.9
2019-06-25T08:00:02.131Z,99.9
2019-06-25T08:05:05.915Z,96.3
2019-06-25T08:10:02.169Z,96.3
2019-06-25T08:15:03.016Z,92.9
2019-06-25T08:20:04.319Z,86.6
2019-06-25T08:25:02.736Z,86.3
2019-06-25T08:30:02.300Z,79.7
2019-06-25T08:35:03.020Z,78.7
2019-06-25T08:40:18.927Z,71.5
2019-06-25T08:45:03.552Z,69.7
2019-06-25T08:50:02.242Z,66.7
2019-06-25T08:55:03.410Z,63.4
2019-06-25T09:00:02.143Z,62.7
2019-06-25T09:05:07.731Z,61.3
2019-06-25T09:10:02.360Z,60.7
2019-06-25T09:15:01.773Z,58.2
2019-06-25T09:20:02.266Z,54.2
2019-06-25T09:25:03.312Z,55.1
2019-06-25T09:30:02.250Z,53.1
2019-06-25T09:35:19.754Z,52.6
2019-06-25T09:40:01.977Z,52.5
2019-06-25T09:45:03.150Z,53.2
2019-06-25T09:50:02.574Z,51.8
2019-06-25T09:55:03.031Z,52.2
2019-06-25T10:00:02.104Z,50.9
2019-06-25T10:05:03.162Z,51.5
2019-06-25T10:10:02.183Z,51
2019-06-25T10:15:03.530Z,50.2
2019-06-25T10:20:10.014Z,49.6
2019-06-25T10:25:03.405Z,49.5
2019-06-25T10:30:03.164Z,49.3
2019-06-25T10:35:03.357Z,49.1
2019-06-25T10:40:02.116Z,48.7
2019-06-25T10:45:03.078Z,48
2019-06-25T10:50:02.326Z,46.8
2019-06-25T10:55:03.203Z,47.3
2019-06-25T11:00:02.348Z,47.1
2019-06-25T11:05:03.180Z,46.3
2019-06-25T11:10:02.353Z,47.1
2019-06-25T11:15:03.545Z,47
2019-06-25T11:20:02.346Z,45.5
2019-06-25T11:25:03.785Z,46.2
2019-06-25T11:30:04.446Z,45.2
2019-06-25T11:35:03.083Z,45.3
2019-06-25T11:40:01.947Z,45.8
2019-06-25T11:45:03.017Z,46.5
2019-06-25T11:50:01.727Z,46.2
2019-06-25T11:55:02.611Z,46.9
2019-06-25T12:00:01.927Z,47.4
2019-06-25T12:05:03.131Z,45.8
2019-06-25T12:10:02.119Z,45.8
2019-06-25T12:15:03.332Z,44.6
2019-06-25T12:20:04.516Z,43.9
2019-06-25T12:25:05.645Z,44.2
2019-06-25T12:30:02.299Z,44.2
2019-06-25T12:35:01.439Z,42.4
2019-06-25T12:40:04.922Z,41.8
2019-06-25T12:45:01.736Z,41.8
2019-06-25T12:50:02.937Z,42.8
2019-06-25T12:55:03.276Z,42.3
2019-06-25T13:00:02.162Z,42.7
2019-06-25T13:05:04.080Z,40
2019-06-25T13:10:02.102Z,41.7
2019-06-25T13:15:03.180Z,43.6
2019-06-25T13:20:02.001Z,41
2019-06-25T13:25:03.183Z,42
2019-06-25T13:30:02.863Z,40.5
2019-06-25T13:35:01.418Z,40.4
2019-06-25T13:40:02.603Z,40.8
2019-06-25T13:45:01.775Z,42.3
2019-06-25T13:50:02.877Z,42.6
2019-06-25T13:55:02.009Z,39.3
2019-06-25T14:00:03.286Z,39.2
2019-06-25T14:05:02.045Z,38.3
2019-06-25T14:10:05.460Z,35.3
2019-06-25T14:15:01.882Z,35.1
2019-06-25T14:20:03.029Z,36.5
2019-06-25T14:25:02.293Z,34.4
2019-06-25T14:30:03.355Z,33.7
2019-06-25T14:35:02.436Z,34.7
2019-06-25T14:40:01.696Z,34.1
2019-06-25T14:45:02.641Z,34.6
2019-06-25T14:50:02.191Z,35.1
2019-06-25T14:55:03.065Z,36.5
2019-06-25T15:00:02.037Z,36.6
2019-06-25T15:05:03.192Z,36.3
2019-06-25T15:10:02.471Z,35.1
2019-06-25T15:15:07.920Z,34.2
2019-06-25T15:20:02.002Z,38.1
2019-06-25T15:25:03.254Z,37.5
2019-06-25T15:30:04.594Z,36.8
2019-06-25T15:35:07.109Z,36.8
2019-06-25T15:40:02.113Z,36.4
2019-06-25T15:45:03.175Z,36.7
2019-06-25T15:50:02.054Z,37.6
2019-06-25T15:55:03.327Z,37.5
2019-06-25T16:00:02.110Z,36.7
2019-06-25T16:05:01.408Z,37.7
2019-06-25T16:10:02.559Z,37.5
2019-06-25T16:15:01.805Z,38
2019-06-25T16:20:03.100Z,37.7
2019-06-25T16:25:02.195Z,37.7
2019-06-25T16:30:03.325Z,35.2
2019-06-25T16:35:02.436Z,35.1
2019-06-25T16:40:03.066Z,36.8
2019-06-25T16:45:02.184Z,36.9
2019-06-25T16:50:03.489Z,37
2019-06-25T16:55:02.225Z,38.5
2019-06-25T17:00:03.340Z,35.5
2019-06-25T17:05:12.585Z,36.9
2019-06-25T17:10:01.758Z,36.8
2019-06-25T17:15:05.360Z,34.2
2019-06-25T17:20:02.074Z,34.3
2019-06-25T17:25:03.100Z,35.9
2019-06-25T17:30:02.147Z,35.7
2019-06-25T17:35:03.045Z,33.4
2019-06-25T17:40:02.167Z,34.5
2019-06-25T17:45:03.189Z,34.6
2019-06-25T17:50:02.154Z,37.4
2019-06-25T17:55:02.281Z,37.3
2019-06-25T18:00:02.525Z,36.3
2019-06-25T18:05:01.819Z,40
2019-06-25T18:10:09.319Z,41.5
2019-06-25T18:15:04.459Z,41.7
2019-06-25T18:20:02.953Z,41.7
2019-06-25T18:25:02.080Z,42.1
2019-06-25T18:30:03.672Z,43.9
2019-06-25T18:35:04.773Z,46.7
2019-06-25T18:40:01.523Z,46.6
2019-06-25T18:45:05.147Z,45.2
2019-06-25T18:50:01.589Z,47.5
2019-06-25T18:55:04.506Z,44.6
2019-06-25T19:00:01.879Z,48.4
2019-06-25T19:05:03.032Z,48.6
2019-06-25T19:10:02.037Z,49.7
2019-06-25T19:15:03.150Z,49.5
2019-06-25T19:20:02.025Z,47.8
2019-06-25T19:25:05.621Z,49.2
2019-06-25T19:30:02.283Z,49.2
2019-06-25T19:35:03.414Z,51.1
2019-06-25T19:40:02.274Z,51.5
2019-06-25T19:45:01.574Z,52.2
2019-06-25T19:50:18.011Z,53.3
2019-06-25T19:55:01.633Z,54.7
2019-06-25T20:00:02.837Z,57.6
2019-06-25T20:05:01.992Z,60.1
2019-06-25T20:10:03.165Z,62.5
2019-06-25T20:15:02.272Z,67.2
2019-06-25T20:20:03.201Z,70.7
2019-06-25T20:25:02.302Z,77.1
2019-06-25T20:30:04.892Z,77.1
2019-06-25T20:35:02.886Z,83.1
2019-06-25T20:40:01.654Z,88.5
2019-06-25T20:45:02.634Z,91.3
2019-06-25T20:50:01.820Z,92.2
2019-06-25T20:55:02.929Z,95.2
2019-06-25T21:00:02.171Z,94.8
2019-06-25T21:05:02.627Z,96.5
2019-06-25T21:10:02.091Z,99.4
2019-06-25T21:15:03.171Z,99.4
2019-06-25T21:20:01.851Z,99.9
2019-06-25T21:25:02.942Z,99.9
2019-06-25T21:30:01.974Z,99.9
2019-06-25T21:35:02.968Z,99.9
2019-06-25T21:40:02.172Z,99.9
2019-06-25T21:45:03.131Z,99.9
2019-06-25T21:50:01.902Z,99.9
2019-06-25T21:55:11.079Z,99.9
2019-06-25T22:00:02.190Z,99.9
2019-06-25T22:05:03.434Z,99.9
2019-06-25T22:10:02.156Z,99.9
2019-06-25T22:15:03.250Z,99.9
2019-06-25T22:20:02.202Z,99.9
2019-06-25T22:25:03.096Z,99.9
2019-06-25T22:30:01.914Z,99.9
2019-06-25T22:35:02.226Z,99.9
2019-06-25T22:40:03.519Z,99.9
2019-06-25T22:45:02.371Z,99.9
2019-06-25T22:50:03.400Z,99.9
2019-06-25T22:55:02.308Z,99.9
2019-06-25T23:00:01.512Z,99.9
2019-06-25T23:05:02.691Z,99.9
2019-06-25T23:10:02.214Z,99.9
2019-06-25T23:15:03.038Z,99.9
2019-06-25T23:20:02.055Z,99.9
2019-06-25T23:25:02.934Z,99.9
2019-06-25T23:30:01.850Z,99.9
2019-06-25T23:35:03.021Z,99.9
2019-06-25T23:40:02.032Z,99.9
2019-06-25T23:45:03.119Z,99.9
2019-06-25T23:50:02.143Z,99.9
2019-06-25T23:55:03.152Z,99.9
